Stations météo

réclame
Mon MeteoGroup
Retie, Belgique (6464): Température de l'air & dewpoint: 19.02.2018 22:00:00 - 25.02.2018 22:00:00 (CET)Retie, Belgique (6464): Vitesse du vent & gusts: 19.02.2018 22:00:00 - 25.02.2018 22:00:00 (CET)Retie, Belgique (6464): Direction du vent: 19.02.2018 22:00:00 - 25.02.2018 22:00:00 (CET)Retie, Belgique (6464): reduced air pressure: 19.02.2018 22:00:00 - 25.02.2018 22:00:00 (CET)Retie, Belgique (6464): Ensoleillement: 19.02.2018 22:00:00 - 25.02.2018 22:00:00 (CET)Retie, Belgique (6464): Quantités de précipitations: 19.02.2018 22:00:00 - 25.02.2018 22:00:00 (CET)
Date & Time tt [°C] td [°C] ff [km/h] ff [knt] fx [km/h] fx [knt] dd ppp [hPa] sd [min] rr [mm]
25.02.2018 22:00:00 -2,0 -10,3 18 10 - - NE 1029,6 - -
25.02.2018 21:00:00 -2,1 -10,6 11 6 29 16 NNE 1029,5 0 0,0
25.02.2018 20:00:00 -1,8 -11,1 18 10 35 19 NNE 1029,3 0 0,0
25.02.2018 19:00:00 -1,3 -11,6 18 10 31 17 NE 1029,1 13 0,0
25.02.2018 18:00:00 -0,5 -12,4 16 9 31 17 NE 1028,7 57 0,0
25.02.2018 17:00:00 0,7 -12,6 11 6 32 17 NE 1028,4 60 0,0
25.02.2018 16:00:00 1,0 -12,7 16 9 29 16 ENE 1028,6 60 0,0
25.02.2018 15:00:00 1,1 -12,7 16 8 36 19 NE 1029,0 60 0,0
25.02.2018 14:00:00 0,7 -12,3 16 9 33 18 NE 1029,2 60 0,0
25.02.2018 13:00:00 -0,1 -13,0 18 10 32 17 ENE 1029,7 60 0,0
25.02.2018 12:00:00 -0,4 -12,2 20 11 35 19 ENE 1030,1 60 0,0
25.02.2018 11:00:00 -1,3 -12,1 18 10 33 18 ENE 1030,5 60 0,0
25.02.2018 10:00:00 -2,5 -11,8 21 12 36 20 ENE 1030,4 60 0,0
25.02.2018 09:00:00 -3,7 -10,9 15 8 27 14 ENE 1029,9 60 0,0
25.02.2018 08:00:00 -4,4 -10,5 14 7 29 16 ENE 1029,4 3 0,0
25.02.2018 07:00:00 -4,1 -10,2 14 8 30 16 ENE 1029,2 0 0,0
25.02.2018 06:00:00 -3,7 -10,1 13 7 28 15 NE 1028,4 0 0,0
25.02.2018 05:00:00 -3,3 -10,0 15 8 31 17 ENE 1027,8 0 0,0
25.02.2018 04:00:00 -2,8 -9,9 15 8 31 17 ENE 1027,6 0 0,0
25.02.2018 03:00:00 -2,3 -9,8 16 9 29 16 NE 1027,6 0 0,0
25.02.2018 02:00:00 -2,1 -9,3 13 7 29 16 NE 1027,5 0 0,0
25.02.2018 01:00:00 -1,6 -9,1 14 8 30 16 ENE 1027,3 0 0,0
25.02.2018 00:00:00 -1,2 -8,3 18 10 37 20 ENE 1027,2 0 0,0
24.02.2018 23:00:00 -0,9 -7,8 16 9 35 19 NE 1026,9 0 0,0
24.02.2018 22:00:00 -0,5 -7,4 17 9 34 18 ENE 1026,4 0 0,0
24.02.2018 21:00:00 0,0 -7,6 18 10 37 20 ENE 1026,3 0 0,0
24.02.2018 20:00:00 0,4 -6,8 21 11 46 25 ENE 1025,9 0 0,0
24.02.2018 19:00:00 1,0 -6,0 22 12 44 24 ENE 1025,3 0 0,0
24.02.2018 18:00:00 1,8 -5,9 23 13 45 24 ENE 1024,5 5 0,0
24.02.2018 17:00:00 2,3 -6,0 18 10 44 24 NE 1024,2 57 0,0
24.02.2018 16:00:00 4,0 -6,7 25 14 44 24 ENE 1023,9 60 0,0
24.02.2018 15:00:00 4,3 -8,3 21 12 49 27 ENE 1023,8 60 0,0
24.02.2018 14:00:00 4,3 -8,7 21 11 44 24 ENE 1024,0 60 0,0
24.02.2018 13:00:00 3,9 -8,8 22 12 40 22 ENE 1024,1 60 0,0
24.02.2018 12:00:00 2,4 -9,6 19 10 39 21 ENE 1024,4 60 0,0
24.02.2018 11:00:00 0,9 -10,1 18 10 40 21 ENE 1024,6 60 0,0
24.02.2018 10:00:00 -0,7 -10,8 19 10 37 20 ENE 1024,2 60 0,0
24.02.2018 09:00:00 -2,3 -10,3 18 10 32 18 ENE 1024,0 59 0,0
24.02.2018 08:00:00 -3,5 -10,0 19 10 33 18 ENE 1023,7 0 0,0
24.02.2018 07:00:00 -3,8 -9,9 14 8 29 16 ENE 1023,2 0 0,0
24.02.2018 06:00:00 -3,5 -9,8 14 7 24 13 ENE 1022,7 0 0,0
24.02.2018 05:00:00 -3,3 -9,5 14 8 27 15 NE 1022,5 0 0,0
24.02.2018 04:00:00 -3,0 -9,3 13 7 24 13 ENE 1022,4 0 0,0
24.02.2018 03:00:00 -2,6 -8,8 14 8 24 13 ENE 1022,4 0 0,0
24.02.2018 02:00:00 -2,3 -8,0 13 7 29 16 ENE 1022,1 0 0,0
24.02.2018 01:00:00 -1,9 -7,6 14 8 27 15 ENE 1022,1 0 0,0
24.02.2018 00:00:00 -1,6 -6,7 12 7 28 15 NE 1021,8 0 0,0
23.02.2018 23:00:00 -0,9 -6,4 13 7 29 16 ENE 1021,5 0 0,0
23.02.2018 22:00:00 -0,5 -6,5 14 8 30 16 NE 1021,7 0 0,0
23.02.2018 21:00:00 -0,1 -6,7 14 8 25 13 NE 1021,4 0 0,0
23.02.2018 20:00:00 0,0 -6,6 10 5 26 14 NE 1021,4 0 0,0
23.02.2018 19:00:00 1,2 -6,7 14 8 32 17 ENE 1021,1 5 0,0
23.02.2018 18:00:00 2,0 -6,8 17 9 35 19 ENE 1020,8 55 0,0
23.02.2018 17:00:00 2,9 -6,9 19 10 37 20 NE 1020,8 60 0,0
23.02.2018 16:00:00 3,1 -7,8 23 12 39 21 ENE 1020,9 60 0,0
23.02.2018 15:00:00 3,4 -7,1 14 7 37 20 ENE 1021,1 60 0,0
23.02.2018 14:00:00 2,9 -7,5 19 10 37 20 NE 1021,7 60 0,0
23.02.2018 13:00:00 2,3 -7,5 22 12 39 21 E 1022,2 60 0,0
23.02.2018 12:00:00 1,6 -6,8 21 11 37 20 ENE 1022,7 60 0,0
23.02.2018 11:00:00 0,9 -5,2 18 10 39 21 ENE 1022,9 60 0,0
23.02.2018 10:00:00 -0,2 -4,1 18 10 - - NE 1023,2 60 0,0
23.02.2018 09:00:00 -1,4 -3,5 13 7 25 14 NE 1023,2 47 0,0
23.02.2018 08:00:00 -2,2 -4,5 9 5 20 11 NE 1023,1 0 0,0
23.02.2018 07:00:00 -2,3 -4,5 11 6 21 12 NE 1022,9 0 0,0
23.02.2018 06:00:00 -2,3 -4,5 10 5 19 10 NE 1022,7 0 0,0
23.02.2018 05:00:00 -2,4 -4,3 9 5 18 10 NE 1022,9 0 0,0
23.02.2018 04:00:00 -2,3 -4,1 9 5 23 12 NE 1023,1 0 0,0
23.02.2018 03:00:00 -2,1 -4,4 11 6 17 9 NE 1023,3 0 0,0
23.02.2018 02:00:00 -2,0 -4,7 9 5 17 9 NNE 1023,6 0 0,0
23.02.2018 01:00:00 -1,6 -5,0 7 4 18 10 NE 1023,7 0 0,0
23.02.2018 00:00:00 -1,0 -5,2 9 5 23 12 NE 1023,7 0 0,0
22.02.2018 23:00:00 -0,3 -5,4 10 6 25 14 NE 1023,8 0 0,0
22.02.2018 22:00:00 0,6 -5,3 17 9 31 17 NE 1023,4 0 0,0
22.02.2018 21:00:00 0,9 -4,8 16 8 29 16 NE 1023,3 0 0,0
22.02.2018 20:00:00 1,1 -4,4 12 6 26 14 NE 1023,2 0 0,0
22.02.2018 19:00:00 1,8 -4,7 11 6 24 13 NNE 1022,7 5 0,0
22.02.2018 18:00:00 3,0 -5,0 14 8 32 17 NNE 1022,5 55 0,0
22.02.2018 17:00:00 4,3 -5,1 16 9 34 19 NE 1022,5 60 0,0
22.02.2018 16:00:00 4,6 -4,5 17 9 34 18 NNE 1022,5 60 0,0
22.02.2018 15:00:00 4,9 -4,8 15 8 38 20 NE 1023,3 60 0,0
22.02.2018 14:00:00 4,7 -4,3 16 8 33 18 ENE 1024,0 60 0,0
22.02.2018 13:00:00 3,6 -5,0 18 10 37 20 ENE 1024,6 60 0,0
22.02.2018 12:00:00 2,9 -4,3 17 9 29 16 ENE 1024,8 60 0,0
22.02.2018 11:00:00 1,6 -4,0 17 9 29 15 ENE 1025,1 60 0,0
22.02.2018 10:00:00 0,2 -4,1 16 9 27 15 ENE 1025,1 60 0,0
22.02.2018 09:00:00 -1,3 -4,4 10 6 22 12 NE 1025,0 51 0,0
22.02.2018 08:00:00 -2,3 -5,0 10 5 21 11 NE 1024,8 0 0,0
22.02.2018 07:00:00 -2,2 -5,0 11 6 19 10 NE 1024,4 0 0,0
22.02.2018 06:00:00 -2,3 -5,0 9 5 17 9 NE 1024,2 0 0,0
22.02.2018 05:00:00 -2,1 -4,7 10 5 22 12 NE 1024,1 0 0,0
22.02.2018 04:00:00 -1,9 -4,6 8 5 22 12 NE 1024,3 0 0,0
22.02.2018 03:00:00 -1,8 -4,5 9 5 16 9 NE 1024,4 0 0,0
22.02.2018 02:00:00 -1,9 -4,5 8 4 14 7 NE 1024,7 0 0,0
22.02.2018 01:00:00 -1,8 -4,1 7 4 16 8 NNE 1025,0 0 0,0
22.02.2018 00:00:00 -1,4 -3,8 7 4 13 7 NNE 1025,1 0 0,0
21.02.2018 23:00:00 -0,7 -3,7 8 5 16 9 NNE 1025,5 0 0,0
21.02.2018 22:00:00 -0,4 -3,5 6 3 15 8 NNE 1025,5 0 0,0
21.02.2018 21:00:00 -0,3 -3,1 5 3 10 6 N 1025,2 0 0,0
21.02.2018 20:00:00 -0,1 -3,0 4 2 5 3 N 1025,0 0 0,0
21.02.2018 19:00:00 1,0 -3,1 4 2 9 5 N 1025,0 0 0,0
21.02.2018 18:00:00 2,9 -2,6 6 4 17 9 N 1024,6 29 0,0
21.02.2018 17:00:00 4,3 -2,6 11 6 21 12 N 1024,5 60 0,0
21.02.2018 16:00:00 4,8 -2,4 11 6 23 12 N 1024,7 60 0,0
21.02.2018 15:00:00 4,7 -2,9 13 7 23 12 N 1025,3 60 0,0
21.02.2018 14:00:00 - - - - - - - - - -
21.02.2018 13:00:00 3,5 -3,0 11 6 - - NNE 1026,4 - -
21.02.2018 12:00:00 2,2 -2,6 11 6 14 8 N 1026,8 - -
21.02.2018 11:00:00 1,2 -2,6 7 4 14 8 NNE 1026,7 - -
21.02.2018 10:00:00 -0,6 -2,6 6 3 12 7 NNE 1026,7 60 0,0
21.02.2018 09:00:00 -2,4 -3,4 4 2 10 6 N 1026,2 31 0,0
21.02.2018 08:00:00 -3,1 -4,0 4 2 9 5 N 1026,2 0 0,0
21.02.2018 07:00:00 -3,1 -4,1 4 2 10 6 N 1025,9 0 0,0
21.02.2018 06:00:00 -2,4 -3,8 5 3 11 6 N 1025,5 0 0,0
21.02.2018 05:00:00 -1,9 -3,5 6 3 13 7 NNE 1025,1 0 0,0
21.02.2018 04:00:00 -1,6 -3,2 7 4 13 7 NE 1025,0 0 0,0
21.02.2018 03:00:00 -1,5 -2,8 6 3 12 7 NNE 1024,8 0 0,0
21.02.2018 02:00:00 -1,7 -2,8 4 2 8 4 N 1024,5 0 0,0
21.02.2018 01:00:00 -1,3 -2,8 4 2 13 7 NNE 1024,5 0 0,0
21.02.2018 00:00:00 -0,6 -2,4 5 3 13 7 N 1023,8 0 0,0
20.02.2018 23:00:00 0,2 -2,2 6 3 16 9 N 1023,1 0 0,0
20.02.2018 22:00:00 0,7 -2,0 7 4 15 8 NNE 1022,3 0 0,0
20.02.2018 21:00:00 1,6 -1,4 6 3 11 6 NNE 1021,9 0 0,0
20.02.2018 20:00:00 1,6 -1,3 4 2 9 5 N 1021,4 0 0,0
20.02.2018 19:00:00 2,5 -1,3 4 2 9 5 N 1020,7 0 0,0
20.02.2018 18:00:00 3,9 -1,0 4 2 12 7 N 1020,0 0 0,0
20.02.2018 17:00:00 4,6 -0,8 6 3 13 7 N 1019,5 0 0,0
20.02.2018 16:00:00 4,7 -1,1 6 4 13 7 N 1019,1 0 0,0
20.02.2018 15:00:00 4,8 -0,9 7 4 11 6 N 1019,2 0 0,0
20.02.2018 14:00:00 4,6 -0,9 8 4 13 7 NNE 1019,3 44 0,0
20.02.2018 13:00:00 3,4 -1,1 4 2 8 4 N 1019,7 5 0,0
20.02.2018 12:00:00 2,6 -0,3 4 2 8 4 ENE 1019,2 8 0,0
20.02.2018 11:00:00 0,9 -0,9 4 2 6 3 NNW 1019,7 0 0,0
20.02.2018 10:00:00 0,0 -1,0 5 3 8 4 NNE 1019,5 21 0,0
20.02.2018 09:00:00 -1,2 -1,8 4 2 7 4 NW 1019,5 0 0,0
20.02.2018 08:00:00 -1,5 -2,1 4 2 8 4 NNE 1018,8 0 0,0
20.02.2018 07:00:00 -2,1 -2,4 0 0 6 3 N 1018,6 0 0,0
20.02.2018 06:00:00 -1,6 -2,1 4 2 9 5 NNE 1018,8 0 0,0
20.02.2018 05:00:00 -3,1 -3,4 4 2 7 4 NE 1018,7 0 0,0
20.02.2018 04:00:00 -2,4 -2,7 4 2 4 2 NE 1018,8 0 0,0
20.02.2018 03:00:00 -1,9 -2,3 4 2 3 2 N 1018,3 0 0,0
20.02.2018 02:00:00 -0,9 -1,8 0 0 3 2 N 1018,1 0 0,0
20.02.2018 01:00:00 0,3 -1,1 4 2 8 4 NNW 1018,5 0 0,0
20.02.2018 00:00:00 2,1 -0,3 4 2 7 4 ENE 1018,1 0 0,0
19.02.2018 23:00:00 2,0 0,2 4 2 6 3 E 1018,1 0 0,0
19.02.2018 22:00:00 2,7 0,3 4 2 6 3 ENE 1018,3 0 0,0

tt = Température de l'air
td = dewpoint
ff = Vitesse du vent
fx = gusts
dd = Direction du vent
ppp = reduced air pressure
sd = Ensoleillement
rr = Quantités de précipitations

stations d'obs. à proximité